sensor_id;sensor_type;location;lat;lon;timestamp;P1;durP1;ratioP1;P2;durP2;ratioP2
14118;SDS011;7138;49.246;9.100;2024-02-28T00:01:05;17.73;;;11.40;;
14118;SDS011;7138;49.246;9.100;2024-02-28T00:03:31;16.27;;;11.90;;
14118;SDS011;7138;49.246;9.100;2024-02-28T00:05:58;16.23;;;11.35;;
14118;SDS011;7138;49.246;9.100;2024-02-28T00:08:24;17.42;;;11.48;;
14118;SDS011;7138;49.246;9.100;2024-02-28T00:10:50;16.38;;;11.38;;
14118;SDS011;7138;49.246;9.100;2024-02-28T00:13:15;16.10;;;11.15;;
14118;SDS011;7138;49.246;9.100;2024-02-28T00:15:41;16.55;;;10.88;;
14118;SDS011;7138;49.246;9.100;2024-02-28T00:18:09;18.08;;;11.52;;
14118;SDS011;7138;49.246;9.100;2024-02-28T00:20:35;16.52;;;11.43;;
14118;SDS011;7138;49.246;9.100;2024-02-28T00:23:01;17.70;;;11.60;;
14118;SDS011;7138;49.246;9.100;2024-02-28T00:25:26;17.67;;;11.85;;
14118;SDS011;7138;49.246;9.100;2024-02-28T00:27:52;18.83;;;12.50;;
14118;SDS011;7138;49.246;9.100;2024-02-28T00:30:18;18.20;;;12.55;;
14118;SDS011;7138;49.246;9.100;2024-02-28T00:32:44;19.20;;;12.18;;
14118;SDS011;7138;49.246;9.100;2024-02-28T00:35:11;21.40;;;12.93;;
14118;SDS011;7138;49.246;9.100;2024-02-28T00:37:38;19.88;;;12.63;;
14118;SDS011;7138;49.246;9.100;2024-02-28T00:40:05;17.67;;;12.45;;
14118;SDS011;7138;49.246;9.100;2024-02-28T00:42:33;22.02;;;13.23;;
14118;SDS011;7138;49.246;9.100;2024-02-28T00:44:59;19.30;;;12.82;;
14118;SDS011;7138;49.246;9.100;2024-02-28T00:47:25;18.60;;;12.90;;
14118;SDS011;7138;49.246;9.100;2024-02-28T00:49:51;18.67;;;12.48;;
14118;SDS011;7138;49.246;9.100;2024-02-28T00:52:18;19.70;;;12.68;;
14118;SDS011;7138;49.246;9.100;2024-02-28T00:54:44;17.67;;;12.02;;
14118;SDS011;7138;49.246;9.100;2024-02-28T00:57:10;17.00;;;11.57;;
14118;SDS011;7138;49.246;9.100;2024-02-28T00:59:36;17.95;;;11.55;;
14118;SDS011;7138;49.246;9.100;2024-02-28T01:02:02;16.92;;;11.52;;
14118;SDS011;7138;49.246;9.100;2024-02-28T01:04:28;17.13;;;12.25;;
14118;SDS011;7138;49.246;9.100;2024-02-28T01:06:54;17.55;;;12.10;;
14118;SDS011;7138;49.246;9.100;2024-02-28T01:09:22;18.35;;;11.80;;
14118;SDS011;7138;49.246;9.100;2024-02-28T01:11:48;19.33;;;11.93;;
14118;SDS011;7138;49.246;9.100;2024-02-28T01:14:13;17.35;;;11.82;;
14118;SDS011;7138;49.246;9.100;2024-02-28T01:16:39;18.98;;;12.27;;
14118;SDS011;7138;49.246;9.100;2024-02-28T01:19:05;17.10;;;11.68;;
14118;SDS011;7138;49.246;9.100;2024-02-28T01:21:31;17.02;;;11.98;;
14118;SDS011;7138;49.246;9.100;2024-02-28T01:23:57;16.55;;;11.27;;
14118;SDS011;7138;49.246;9.100;2024-02-28T01:26:24;19.40;;;12.68;;
14118;SDS011;7138;49.246;9.100;2024-02-28T01:28:50;21.05;;;13.65;;
14118;SDS011;7138;49.246;9.100;2024-02-28T01:31:15;19.65;;;12.38;;
14118;SDS011;7138;49.246;9.100;2024-02-28T01:33:41;17.13;;;11.88;;
14118;SDS011;7138;49.246;9.100;2024-02-28T01:36:07;18.27;;;12.65;;
14118;SDS011;7138;49.246;9.100;2024-02-28T01:38:33;18.25;;;12.45;;
14118;SDS011;7138;49.246;9.100;2024-02-28T01:40:59;17.40;;;11.82;;
14118;SDS011;7138;49.246;9.100;2024-02-28T01:43:26;17.15;;;11.68;;
14118;SDS011;7138;49.246;9.100;2024-02-28T01:45:52;17.98;;;11.93;;
14118;SDS011;7138;49.246;9.100;2024-02-28T01:48:18;17.35;;;12.45;;
14118;SDS011;7138;49.246;9.100;2024-02-28T01:50:44;19.73;;;12.95;;
14118;SDS011;7138;49.246;9.100;2024-02-28T01:53:11;17.10;;;11.38;;
14118;SDS011;7138;49.246;9.100;2024-02-28T01:55:38;16.13;;;10.55;;
14118;SDS011;7138;49.246;9.100;2024-02-28T01:58:05;17.08;;;11.60;;
14118;SDS011;7138;49.246;9.100;2024-02-28T02:00:33;16.73;;;11.68;;
14118;SDS011;7138;49.246;9.100;2024-02-28T02:02:59;17.98;;;11.18;;
14118;SDS011;7138;49.246;9.100;2024-02-28T02:05:26;15.82;;;11.20;;
14118;SDS011;7138;49.246;9.100;2024-02-28T02:07:52;17.77;;;11.50;;
14118;SDS011;7138;49.246;9.100;2024-02-28T02:10:20;18.13;;;12.45;;
14118;SDS011;7138;49.246;9.100;2024-02-28T02:12:46;18.17;;;12.25;;
14118;SDS011;7138;49.246;9.100;2024-02-28T02:15:12;17.85;;;12.05;;
14118;SDS011;7138;49.246;9.100;2024-02-28T02:17:39;20.30;;;12.82;;
14118;SDS011;7138;49.246;9.100;2024-02-28T02:20:05;18.88;;;12.35;;
14118;SDS011;7138;49.246;9.100;2024-02-28T02:22:37;18.33;;;12.50;;
14118;SDS011;7138;49.246;9.100;2024-02-28T02:25:03;17.50;;;11.55;;
14118;SDS011;7138;49.246;9.100;2024-02-28T02:27:30;19.23;;;12.75;;
14118;SDS011;7138;49.246;9.100;2024-02-28T02:29:56;19.13;;;13.15;;
14118;SDS011;7138;49.246;9.100;2024-02-28T02:32:22;20.92;;;13.43;;
14118;SDS011;7138;49.246;9.100;2024-02-28T02:34:48;18.45;;;12.25;;
14118;SDS011;7138;49.246;9.100;2024-02-28T02:37:14;17.08;;;12.10;;
14118;SDS011;7138;49.246;9.100;2024-02-28T02:39:41;18.90;;;12.68;;
14118;SDS011;7138;49.246;9.100;2024-02-28T02:42:07;20.20;;;13.07;;
14118;SDS011;7138;49.246;9.100;2024-02-28T02:44:33;20.50;;;13.40;;
14118;SDS011;7138;49.246;9.100;2024-02-28T02:46:59;20.63;;;13.18;;
14118;SDS011;7138;49.246;9.100;2024-02-28T02:49:25;18.73;;;12.57;;
14118;SDS011;7138;49.246;9.100;2024-02-28T02:51:51;20.85;;;13.23;;
14118;SDS011;7138;49.246;9.100;2024-02-28T02:54:17;18.13;;;12.10;;
14118;SDS011;7138;49.246;9.100;2024-02-28T02:56:44;18.02;;;12.75;;
14118;SDS011;7138;49.246;9.100;2024-02-28T02:59:10;19.55;;;13.05;;
14118;SDS011;7138;49.246;9.100;2024-02-28T03:01:37;19.15;;;13.05;;
14118;SDS011;7138;49.246;9.100;2024-02-28T03:04:03;20.40;;;13.25;;
14118;SDS011;7138;49.246;9.100;2024-02-28T03:06:29;19.48;;;13.02;;
14118;SDS011;7138;49.246;9.100;2024-02-28T03:08:55;20.58;;;13.18;;
14118;SDS011;7138;49.246;9.100;2024-02-28T03:11:21;17.23;;;12.43;;
14118;SDS011;7138;49.246;9.100;2024-02-28T03:13:48;17.73;;;11.82;;
14118;SDS011;7138;49.246;9.100;2024-02-28T03:16:14;20.60;;;12.40;;
14118;SDS011;7138;49.246;9.100;2024-02-28T03:18:39;20.05;;;13.40;;
14118;SDS011;7138;49.246;9.100;2024-02-28T03:21:05;20.83;;;13.48;;
14118;SDS011;7138;49.246;9.100;2024-02-28T03:23:31;17.85;;;12.52;;
14118;SDS011;7138;49.246;9.100;2024-02-28T03:25:58;18.67;;;12.60;;
14118;SDS011;7138;49.246;9.100;2024-02-28T03:28:24;18.80;;;13.32;;
14118;SDS011;7138;49.246;9.100;2024-02-28T03:30:51;17.60;;;13.10;;
14118;SDS011;7138;49.246;9.100;2024-02-28T03:33:16;19.27;;;13.80;;
14118;SDS011;7138;49.246;9.100;2024-02-28T03:35:42;19.20;;;13.18;;
14118;SDS011;7138;49.246;9.100;2024-02-28T03:38:08;18.35;;;13.43;;
14118;SDS011;7138;49.246;9.100;2024-02-28T03:40:34;21.25;;;13.93;;
14118;SDS011;7138;49.246;9.100;2024-02-28T03:43:00;18.83;;;13.30;;
14118;SDS011;7138;49.246;9.100;2024-02-28T03:45:27;22.45;;;14.23;;
14118;SDS011;7138;49.246;9.100;2024-02-28T03:47:56;19.58;;;13.70;;
14118;SDS011;7138;49.246;9.100;2024-02-28T03:50:22;20.27;;;13.93;;
14118;SDS011;7138;49.246;9.100;2024-02-28T03:52:47;18.98;;;12.60;;
14118;SDS011;7138;49.246;9.100;2024-02-28T03:55:13;19.88;;;13.55;;
14118;SDS011;7138;49.246;9.100;2024-02-28T03:57:40;21.15;;;13.77;;
14118;SDS011;7138;49.246;9.100;2024-02-28T04:00:07;19.60;;;13.30;;
14118;SDS011;7138;49.246;9.100;2024-02-28T04:02:34;21.40;;;13.52;;
14118;SDS011;7138;49.246;9.100;2024-02-28T04:05:01;21.13;;;14.13;;
14118;SDS011;7138;49.246;9.100;2024-02-28T04:07:27;20.30;;;13.77;;
14118;SDS011;7138;49.246;9.100;2024-02-28T04:09:53;20.30;;;13.60;;
14118;SDS011;7138;49.246;9.100;2024-02-28T04:12:19;22.35;;;14.45;;
14118;SDS011;7138;49.246;9.100;2024-02-28T04:14:45;19.95;;;13.85;;
14118;SDS011;7138;49.246;9.100;2024-02-28T04:17:10;19.98;;;14.10;;
14118;SDS011;7138;49.246;9.100;2024-02-28T04:19:36;18.38;;;13.68;;
14118;SDS011;7138;49.246;9.100;2024-02-28T04:22:05;19.92;;;13.40;;
14118;SDS011;7138;49.246;9.100;2024-02-28T04:24:31;19.83;;;13.18;;
14118;SDS011;7138;49.246;9.100;2024-02-28T04:26:58;21.10;;;13.85;;
14118;SDS011;7138;49.246;9.100;2024-02-28T04:29:24;22.05;;;14.50;;
14118;SDS011;7138;49.246;9.100;2024-02-28T04:31:50;21.30;;;14.85;;
14118;SDS011;7138;49.246;9.100;2024-02-28T04:34:16;23.05;;;15.68;;
14118;SDS011;7138;49.246;9.100;2024-02-28T04:36:42;24.05;;;15.30;;
14118;SDS011;7138;49.246;9.100;2024-02-28T04:39:09;24.98;;;15.00;;
14118;SDS011;7138;49.246;9.100;2024-02-28T04:41:35;23.92;;;15.00;;
14118;SDS011;7138;49.246;9.100;2024-02-28T04:44:00;23.35;;;15.65;;
14118;SDS011;7138;49.246;9.100;2024-02-28T04:46:26;22.38;;;15.80;;
14118;SDS011;7138;49.246;9.100;2024-02-28T04:48:52;27.27;;;16.67;;
14118;SDS011;7138;49.246;9.100;2024-02-28T04:51:18;24.58;;;16.20;;
14118;SDS011;7138;49.246;9.100;2024-02-28T04:53:44;23.70;;;15.63;;
14118;SDS011;7138;49.246;9.100;2024-02-28T04:56:11;23.60;;;15.40;;
14118;SDS011;7138;49.246;9.100;2024-02-28T04:58:37;24.95;;;16.70;;
14118;SDS011;7138;49.246;9.100;2024-02-28T05:01:03;25.27;;;16.98;;
14118;SDS011;7138;49.246;9.100;2024-02-28T05:03:29;23.70;;;16.70;;
14118;SDS011;7138;49.246;9.100;2024-02-28T05:05:55;28.70;;;17.80;;
14118;SDS011;7138;49.246;9.100;2024-02-28T05:08:20;30.13;;;18.75;;
14118;SDS011;7138;49.246;9.100;2024-02-28T05:10:46;28.70;;;18.65;;
14118;SDS011;7138;49.246;9.100;2024-02-28T05:13:14;32.08;;;19.88;;
14118;SDS011;7138;49.246;9.100;2024-02-28T05:15:39;31.58;;;19.08;;
14118;SDS011;7138;49.246;9.100;2024-02-28T05:18:05;28.63;;;18.10;;
14118;SDS011;7138;49.246;9.100;2024-02-28T05:20:31;30.65;;;19.25;;
14118;SDS011;7138;49.246;9.100;2024-02-28T05:22:57;29.45;;;18.65;;
14118;SDS011;7138;49.246;9.100;2024-02-28T05:25:23;28.77;;;18.17;;
14118;SDS011;7138;49.246;9.100;2024-02-28T05:27:48;28.80;;;18.75;;
14118;SDS011;7138;49.246;9.100;2024-02-28T05:30:16;28.73;;;18.55;;
14118;SDS011;7138;49.246;9.100;2024-02-28T05:32:41;26.83;;;17.75;;
14118;SDS011;7138;49.246;9.100;2024-02-28T05:35:07;27.55;;;18.77;;
14118;SDS011;7138;49.246;9.100;2024-02-28T05:37:36;30.45;;;19.67;;
14118;SDS011;7138;49.246;9.100;2024-02-28T05:40:02;28.58;;;19.02;;
14118;SDS011;7138;49.246;9.100;2024-02-28T05:42:31;28.13;;;19.00;;
14118;SDS011;7138;49.246;9.100;2024-02-28T05:44:57;29.23;;;19.02;;
14118;SDS011;7138;49.246;9.100;2024-02-28T05:47:24;32.08;;;20.05;;
14118;SDS011;7138;49.246;9.100;2024-02-28T05:49:50;29.02;;;18.80;;
14118;SDS011;7138;49.246;9.100;2024-02-28T05:52:16;28.40;;;17.77;;
14118;SDS011;7138;49.246;9.100;2024-02-28T05:54:41;28.20;;;18.88;;
14118;SDS011;7138;49.246;9.100;2024-02-28T05:57:08;28.20;;;18.40;;
14118;SDS011;7138;49.246;9.100;2024-02-28T05:59:33;29.20;;;18.40;;
14118;SDS011;7138;49.246;9.100;2024-02-28T06:01:59;25.65;;;17.45;;
14118;SDS011;7138;49.246;9.100;2024-02-28T06:04:27;28.98;;;18.70;;
14118;SDS011;7138;49.246;9.100;2024-02-28T06:06:52;27.67;;;17.70;;
14118;SDS011;7138;49.246;9.100;2024-02-28T06:09:18;28.77;;;19.02;;
14118;SDS011;7138;49.246;9.100;2024-02-28T06:11:44;30.13;;;18.98;;
14118;SDS011;7138;49.246;9.100;2024-02-28T06:14:10;31.67;;;18.80;;
14118;SDS011;7138;49.246;9.100;2024-02-28T06:16:36;26.60;;;17.65;;
14118;SDS011;7138;49.246;9.100;2024-02-28T06:19:01;30.80;;;19.38;;
14118;SDS011;7138;49.246;9.100;2024-02-28T06:21:29;28.98;;;18.55;;
14118;SDS011;7138;49.246;9.100;2024-02-28T06:23:54;29.90;;;19.05;;
14118;SDS011;7138;49.246;9.100;2024-02-28T06:26:20;30.63;;;19.77;;
14118;SDS011;7138;49.246;9.100;2024-02-28T06:28:46;30.80;;;19.65;;
14118;SDS011;7138;49.246;9.100;2024-02-28T06:31:14;28.55;;;18.42;;
14118;SDS011;7138;49.246;9.100;2024-02-28T06:33:40;30.65;;;20.05;;
14118;SDS011;7138;49.246;9.100;2024-02-28T06:36:06;30.77;;;19.55;;
14118;SDS011;7138;49.246;9.100;2024-02-28T06:38:34;29.73;;;19.23;;
14118;SDS011;7138;49.246;9.100;2024-02-28T06:41:00;31.17;;;18.70;;
14118;SDS011;7138;49.246;9.100;2024-02-28T06:43:27;30.42;;;19.38;;
14118;SDS011;7138;49.246;9.100;2024-02-28T06:45:52;29.38;;;18.45;;
14118;SDS011;7138;49.246;9.100;2024-02-28T06:48:18;28.45;;;18.15;;
14118;SDS011;7138;49.246;9.100;2024-02-28T06:50:44;30.00;;;18.90;;
14118;SDS011;7138;49.246;9.100;2024-02-28T06:53:10;28.17;;;18.13;;
14118;SDS011;7138;49.246;9.100;2024-02-28T06:55:37;28.05;;;18.45;;
14118;SDS011;7138;49.246;9.100;2024-02-28T06:58:03;27.70;;;16.85;;
14118;SDS011;7138;49.246;9.100;2024-02-28T07:00:29;26.80;;;17.38;;
14118;SDS011;7138;49.246;9.100;2024-02-28T07:02:55;27.23;;;18.58;;
14118;SDS011;7138;49.246;9.100;2024-02-28T07:05:21;27.92;;;17.83;;
14118;SDS011;7138;49.246;9.100;2024-02-28T07:07:47;29.75;;;18.70;;
14118;SDS011;7138;49.246;9.100;2024-02-28T07:10:13;26.42;;;17.75;;
14118;SDS011;7138;49.246;9.100;2024-02-28T07:12:40;29.75;;;18.80;;
14118;SDS011;7138;49.246;9.100;2024-02-28T07:15:06;32.75;;;19.02;;
14118;SDS011;7138;49.246;9.100;2024-02-28T07:17:33;28.55;;;18.30;;
14118;SDS011;7138;49.246;9.100;2024-02-28T07:19:58;29.63;;;18.05;;
14118;SDS011;7138;49.246;9.100;2024-02-28T07:22:24;27.67;;;18.63;;
14118;SDS011;7138;49.246;9.100;2024-02-28T07:24:50;25.08;;;17.30;;
14118;SDS011;7138;49.246;9.100;2024-02-28T07:27:16;28.27;;;17.77;;
14118;SDS011;7138;49.246;9.100;2024-02-28T07:29:43;28.52;;;17.75;;
14118;SDS011;7138;49.246;9.100;2024-02-28T07:32:09;26.92;;;16.88;;
14118;SDS011;7138;49.246;9.100;2024-02-28T07:34:35;28.77;;;18.00;;
14118;SDS011;7138;49.246;9.100;2024-02-28T07:37:01;28.42;;;17.50;;
14118;SDS011;7138;49.246;9.100;2024-02-28T07:39:27;26.75;;;17.38;;
14118;SDS011;7138;49.246;9.100;2024-02-28T07:41:52;26.75;;;17.63;;
14118;SDS011;7138;49.246;9.100;2024-02-28T07:44:18;24.15;;;16.17;;
14118;SDS011;7138;49.246;9.100;2024-02-28T07:46:45;24.90;;;15.77;;
14118;SDS011;7138;49.246;9.100;2024-02-28T07:49:11;25.35;;;15.70;;
14118;SDS011;7138;49.246;9.100;2024-02-28T07:51:38;24.55;;;15.77;;
14118;SDS011;7138;49.246;9.100;2024-02-28T07:54:05;26.15;;;15.95;;
14118;SDS011;7138;49.246;9.100;2024-02-28T07:56:31;24.48;;;15.75;;
14118;SDS011;7138;49.246;9.100;2024-02-28T07:58:57;23.52;;;14.93;;
14118;SDS011;7138;49.246;9.100;2024-02-28T08:01:23;24.63;;;16.42;;
14118;SDS011;7138;49.246;9.100;2024-02-28T08:03:50;23.90;;;16.27;;
14118;SDS011;7138;49.246;9.100;2024-02-28T08:06:16;23.38;;;15.82;;
14118;SDS011;7138;49.246;9.100;2024-02-28T08:08:43;24.52;;;15.77;;
14118;SDS011;7138;49.246;9.100;2024-02-28T08:11:10;23.98;;;15.02;;
14118;SDS011;7138;49.246;9.100;2024-02-28T08:13:36;23.67;;;14.98;;
14118;SDS011;7138;49.246;9.100;2024-02-28T08:16:02;22.13;;;15.05;;
14118;SDS011;7138;49.246;9.100;2024-02-28T08:18:28;23.52;;;15.00;;
14118;SDS011;7138;49.246;9.100;2024-02-28T08:20:55;25.38;;;15.65;;
14118;SDS011;7138;49.246;9.100;2024-02-28T08:23:22;22.35;;;15.18;;
14118;SDS011;7138;49.246;9.100;2024-02-28T08:25:48;22.75;;;14.88;;
14118;SDS011;7138;49.246;9.100;2024-02-28T08:28:14;21.45;;;14.10;;
14118;SDS011;7138;49.246;9.100;2024-02-28T08:30:40;21.95;;;14.75;;
14118;SDS011;7138;49.246;9.100;2024-02-28T08:33:06;20.58;;;13.88;;
14118;SDS011;7138;49.246;9.100;2024-02-28T08:35:33;21.45;;;14.57;;
14118;SDS011;7138;49.246;9.100;2024-02-28T08:38:01;20.15;;;14.00;;
14118;SDS011;7138;49.246;9.100;2024-02-28T08:40:28;20.90;;;13.73;;
14118;SDS011;7138;49.246;9.100;2024-02-28T08:42:53;21.85;;;14.98;;
14118;SDS011;7138;49.246;9.100;2024-02-28T08:45:20;22.75;;;14.05;;
14118;SDS011;7138;49.246;9.100;2024-02-28T08:47:47;21.15;;;13.88;;
14118;SDS011;7138;49.246;9.100;2024-02-28T08:50:13;19.20;;;13.38;;
14118;SDS011;7138;49.246;9.100;2024-02-28T08:52:39;19.23;;;13.02;;
14118;SDS011;7138;49.246;9.100;2024-02-28T08:55:06;20.55;;;13.40;;
14118;SDS011;7138;49.246;9.100;2024-02-28T08:57:33;19.33;;;12.95;;
14118;SDS011;7138;49.246;9.100;2024-02-28T08:59:59;22.60;;;14.10;;
14118;SDS011;7138;49.246;9.100;2024-02-28T09:02:25;22.77;;;13.93;;
14118;SDS011;7138;49.246;9.100;2024-02-28T09:04:51;21.40;;;14.23;;
14118;SDS011;7138;49.246;9.100;2024-02-28T09:07:18;19.85;;;13.80;;
14118;SDS011;7138;49.246;9.100;2024-02-28T09:09:46;22.88;;;15.02;;
14118;SDS011;7138;49.246;9.100;2024-02-28T09:12:14;21.17;;;14.75;;
14118;SDS011;7138;49.246;9.100;2024-02-28T09:14:40;22.17;;;14.32;;
14118;SDS011;7138;49.246;9.100;2024-02-28T09:17:06;20.17;;;12.85;;
14118;SDS011;7138;49.246;9.100;2024-02-28T09:19:32;20.27;;;13.65;;
14118;SDS011;7138;49.246;9.100;2024-02-28T09:21:57;20.33;;;13.73;;
14118;SDS011;7138;49.246;9.100;2024-02-28T09:24:23;20.45;;;13.55;;
14118;SDS011;7138;49.246;9.100;2024-02-28T09:26:49;20.02;;;13.35;;
14118;SDS011;7138;49.246;9.100;2024-02-28T09:29:17;20.48;;;13.93;;
14118;SDS011;7138;49.246;9.100;2024-02-28T09:31:42;21.17;;;14.00;;
14118;SDS011;7138;49.246;9.100;2024-02-28T09:34:08;22.55;;;13.75;;
14118;SDS011;7138;49.246;9.100;2024-02-28T09:36:39;21.30;;;13.25;;
14118;SDS011;7138;49.246;9.100;2024-02-28T09:39:06;18.88;;;13.10;;
14118;SDS011;7138;49.246;9.100;2024-02-28T09:41:32;21.55;;;13.45;;
14118;SDS011;7138;49.246;9.100;2024-02-28T09:43:58;20.08;;;13.90;;
14118;SDS011;7138;49.246;9.100;2024-02-28T09:46:29;21.20;;;13.70;;
14118;SDS011;7138;49.246;9.100;2024-02-28T09:48:58;19.55;;;13.23;;
14118;SDS011;7138;49.246;9.100;2024-02-28T09:51:28;22.33;;;14.57;;
14118;SDS011;7138;49.246;9.100;2024-02-28T09:53:58;20.38;;;13.50;;
14118;SDS011;7138;49.246;9.100;2024-02-28T09:56:25;20.45;;;13.30;;
14118;SDS011;7138;49.246;9.100;2024-02-28T09:58:52;21.02;;;13.38;;
14118;SDS011;7138;49.246;9.100;2024-02-28T10:01:20;18.35;;;13.52;;
14118;SDS011;7138;49.246;9.100;2024-02-28T10:03:50;19.30;;;13.55;;
14118;SDS011;7138;49.246;9.100;2024-02-28T10:06:21;19.67;;;13.75;;
14118;SDS011;7138;49.246;9.100;2024-02-28T10:08:47;20.50;;;13.73;;
14118;SDS011;7138;49.246;9.100;2024-02-28T10:11:17;20.98;;;13.18;;
14118;SDS011;7138;49.246;9.100;2024-02-28T10:13:44;17.02;;;11.85;;
14118;SDS011;7138;49.246;9.100;2024-02-28T10:16:09;18.30;;;12.25;;
14118;SDS011;7138;49.246;9.100;2024-02-28T10:18:35;17.45;;;12.15;;
14118;SDS011;7138;49.246;9.100;2024-02-28T10:21:03;16.60;;;11.73;;
14118;SDS011;7138;49.246;9.100;2024-02-28T10:23:29;16.75;;;12.10;;
14118;SDS011;7138;49.246;9.100;2024-02-28T10:25:56;17.77;;;11.60;;
14118;SDS011;7138;49.246;9.100;2024-02-28T10:28:22;15.88;;;11.32;;
14118;SDS011;7138;49.246;9.100;2024-02-28T10:30:48;15.15;;;10.13;;
14118;SDS011;7138;49.246;9.100;2024-02-28T10:33:14;13.88;;;10.30;;
14118;SDS011;7138;49.246;9.100;2024-02-28T10:35:40;15.65;;;10.63;;
14118;SDS011;7138;49.246;9.100;2024-02-28T10:38:09;15.70;;;10.30;;
14118;SDS011;7138;49.246;9.100;2024-02-28T10:40:36;15.02;;;10.23;;
14118;SDS011;7138;49.246;9.100;2024-02-28T10:43:03;14.18;;;9.95;;
14118;SDS011;7138;49.246;9.100;2024-02-28T10:45:30;13.80;;;9.85;;
14118;SDS011;7138;49.246;9.100;2024-02-28T10:47:56;11.40;;;8.40;;
14118;SDS011;7138;49.246;9.100;2024-02-28T10:50:22;12.20;;;8.60;;
14118;SDS011;7138;49.246;9.100;2024-02-28T10:52:48;13.45;;;9.23;;
14118;SDS011;7138;49.246;9.100;2024-02-28T10:55:21;11.77;;;8.43;;
14118;SDS011;7138;49.246;9.100;2024-02-28T10:57:52;13.82;;;9.50;;
14118;SDS011;7138;49.246;9.100;2024-02-28T11:00:27;14.13;;;9.60;;
14118;SDS011;7138;49.246;9.100;2024-02-28T11:02:54;15.05;;;10.23;;
14118;SDS011;7138;49.246;9.100;2024-02-28T11:05:22;12.52;;;9.52;;
14118;SDS011;7138;49.246;9.100;2024-02-28T11:07:50;13.32;;;9.25;;
14118;SDS011;7138;49.246;9.100;2024-02-28T11:10:17;12.65;;;8.95;;
14118;SDS011;7138;49.246;9.100;2024-02-28T11:12:55;14.52;;;10.25;;
14118;SDS011;7138;49.246;9.100;2024-02-28T11:15:21;16.48;;;10.07;;
14118;SDS011;7138;49.246;9.100;2024-02-28T11:17:52;13.77;;;9.77;;
14118;SDS011;7138;49.246;9.100;2024-02-28T11:20:18;14.07;;;8.88;;
14118;SDS011;7138;49.246;9.100;2024-02-28T11:22:45;15.48;;;10.60;;
14118;SDS011;7138;49.246;9.100;2024-02-28T11:25:11;13.48;;;9.98;;
14118;SDS011;7138;49.246;9.100;2024-02-28T11:27:45;14.82;;;9.60;;
14118;SDS011;7138;49.246;9.100;2024-02-28T11:30:13;14.15;;;10.15;;
14118;SDS011;7138;49.246;9.100;2024-02-28T11:32:40;12.98;;;8.93;;
14118;SDS011;7138;49.246;9.100;2024-02-28T11:35:06;12.52;;;8.73;;
14118;SDS011;7138;49.246;9.100;2024-02-28T11:37:33;12.60;;;8.70;;
14118;SDS011;7138;49.246;9.100;2024-02-28T11:39:59;13.77;;;9.80;;
14118;SDS011;7138;49.246;9.100;2024-02-28T11:42:25;12.18;;;8.98;;
14118;SDS011;7138;49.246;9.100;2024-02-28T11:44:54;14.95;;;10.50;;
14118;SDS011;7138;49.246;9.100;2024-02-28T11:47:26;13.32;;;9.80;;
14118;SDS011;7138;49.246;9.100;2024-02-28T11:49:53;14.52;;;9.82;;
14118;SDS011;7138;49.246;9.100;2024-02-28T11:52:24;14.02;;;10.20;;
14118;SDS011;7138;49.246;9.100;2024-02-28T11:54:50;14.68;;;10.40;;
14118;SDS011;7138;49.246;9.100;2024-02-28T11:57:17;13.05;;;9.57;;
14118;SDS011;7138;49.246;9.100;2024-02-28T11:59:43;13.88;;;9.05;;
14118;SDS011;7138;49.246;9.100;2024-02-28T12:02:14;14.32;;;9.32;;
14118;SDS011;7138;49.246;9.100;2024-02-28T12:04:42;12.27;;;9.10;;
14118;SDS011;7138;49.246;9.100;2024-02-28T12:07:08;11.30;;;8.80;;
14118;SDS011;7138;49.246;9.100;2024-02-28T12:09:34;12.13;;;9.27;;
14118;SDS011;7138;49.246;9.100;2024-02-28T12:12:01;12.55;;;8.65;;
14118;SDS011;7138;49.246;9.100;2024-02-28T12:14:31;14.73;;;9.95;;
14118;SDS011;7138;49.246;9.100;2024-02-28T12:16:58;12.88;;;8.98;;
14118;SDS011;7138;49.246;9.100;2024-02-28T12:19:24;13.93;;;8.93;;
14118;SDS011;7138;49.246;9.100;2024-02-28T12:21:51;12.57;;;8.95;;
14118;SDS011;7138;49.246;9.100;2024-02-28T12:24:17;11.07;;;7.13;;
14118;SDS011;7138;49.246;9.100;2024-02-28T12:26:43;12.43;;;8.05;;
14118;SDS011;7138;49.246;9.100;2024-02-28T12:29:09;11.75;;;7.93;;
14118;SDS011;7138;49.246;9.100;2024-02-28T12:31:35;11.75;;;7.70;;
14118;SDS011;7138;49.246;9.100;2024-02-28T12:34:01;13.70;;;9.00;;
14118;SDS011;7138;49.246;9.100;2024-02-28T12:36:30;13.23;;;7.72;;
14118;SDS011;7138;49.246;9.100;2024-02-28T12:38:58;12.25;;;8.63;;
14118;SDS011;7138;49.246;9.100;2024-02-28T12:41:24;11.43;;;8.23;;
14118;SDS011;7138;49.246;9.100;2024-02-28T12:43:51;12.48;;;8.75;;
14118;SDS011;7138;49.246;9.100;2024-02-28T12:46:16;14.35;;;9.02;;
14118;SDS011;7138;49.246;9.100;2024-02-28T12:48:42;13.05;;;8.73;;
14118;SDS011;7138;49.246;9.100;2024-02-28T12:51:10;11.27;;;8.00;;
14118;SDS011;7138;49.246;9.100;2024-02-28T12:54:01;12.98;;;9.05;;
14118;SDS011;7138;49.246;9.100;2024-02-28T12:56:27;13.68;;;8.98;;
14118;SDS011;7138;49.246;9.100;2024-02-28T12:58:53;12.77;;;8.55;;
14118;SDS011;7138;49.246;9.100;2024-02-28T13:01:19;10.60;;;6.88;;
14118;SDS011;7138;49.246;9.100;2024-02-28T13:03:45;9.27;;;6.25;;
14118;SDS011;7138;49.246;9.100;2024-02-28T13:06:11;9.43;;;6.88;;
14118;SDS011;7138;49.246;9.100;2024-02-28T13:08:40;10.05;;;6.57;;
14118;SDS011;7138;49.246;9.100;2024-02-28T13:11:07;10.88;;;7.32;;
14118;SDS011;7138;49.246;9.100;2024-02-28T13:13:33;14.05;;;9.00;;
14118;SDS011;7138;49.246;9.100;2024-02-28T13:15:59;13.60;;;8.68;;
14118;SDS011;7138;49.246;9.100;2024-02-28T13:18:25;12.27;;;8.32;;
14118;SDS011;7138;49.246;9.100;2024-02-28T13:20:51;12.48;;;8.18;;
14118;SDS011;7138;49.246;9.100;2024-02-28T13:23:17;10.82;;;8.27;;
14118;SDS011;7138;49.246;9.100;2024-02-28T13:25:43;13.43;;;8.48;;
14118;SDS011;7138;49.246;9.100;2024-02-28T13:28:11;13.60;;;8.80;;
14118;SDS011;7138;49.246;9.100;2024-02-28T13:30:36;13.55;;;8.50;;
14118;SDS011;7138;49.246;9.100;2024-02-28T13:33:02;14.43;;;9.68;;
14118;SDS011;7138;49.246;9.100;2024-02-28T13:35:29;13.02;;;8.75;;
14118;SDS011;7138;49.246;9.100;2024-02-28T13:37:55;12.80;;;8.20;;
14118;SDS011;7138;49.246;9.100;2024-02-28T13:40:25;14.90;;;8.60;;
14118;SDS011;7138;49.246;9.100;2024-02-28T13:42:52;12.60;;;8.25;;
14118;SDS011;7138;49.246;9.100;2024-02-28T13:45:19;12.32;;;7.55;;
14118;SDS011;7138;49.246;9.100;2024-02-28T13:47:45;15.65;;;8.25;;
14118;SDS011;7138;49.246;9.100;2024-02-28T13:50:11;11.57;;;7.00;;
14118;SDS011;7138;49.246;9.100;2024-02-28T13:52:39;12.05;;;7.70;;
14118;SDS011;7138;49.246;9.100;2024-02-28T13:55:06;12.50;;;7.82;;
14118;SDS011;7138;49.246;9.100;2024-02-28T13:57:34;11.38;;;7.10;;
14118;SDS011;7138;49.246;9.100;2024-02-28T14:00:01;10.80;;;7.65;;
14118;SDS011;7138;49.246;9.100;2024-02-28T14:02:33;11.35;;;7.50;;
14118;SDS011;7138;49.246;9.100;2024-02-28T14:05:00;11.02;;;6.80;;
14118;SDS011;7138;49.246;9.100;2024-02-28T14:07:25;9.55;;;6.50;;
14118;SDS011;7138;49.246;9.100;2024-02-28T14:09:51;10.60;;;7.20;;
14118;SDS011;7138;49.246;9.100;2024-02-28T14:12:18;10.18;;;6.93;;
14118;SDS011;7138;49.246;9.100;2024-02-28T14:14:44;14.63;;;10.00;;
14118;SDS011;7138;49.246;9.100;2024-02-28T14:17:09;11.30;;;7.55;;
14118;SDS011;7138;49.246;9.100;2024-02-28T14:19:37;11.55;;;7.85;;
14118;SDS011;7138;49.246;9.100;2024-02-28T14:22:04;11.25;;;6.72;;
14118;SDS011;7138;49.246;9.100;2024-02-28T14:24:30;11.00;;;6.78;;
14118;SDS011;7138;49.246;9.100;2024-02-28T14:26:56;12.10;;;7.22;;
14118;SDS011;7138;49.246;9.100;2024-02-28T14:29:21;14.27;;;7.22;;
14118;SDS011;7138;49.246;9.100;2024-02-28T14:31:47;12.15;;;7.72;;
14118;SDS011;7138;49.246;9.100;2024-02-28T14:34:13;11.63;;;7.47;;